Time;durP1;ratioP1;P1;durP2;ratioP2;P2;SDS_P1;SDS_P2;PMS_P1;PMS_P2;Temp;Humidity;BMP_temperature;BMP_pressure;BME280_temperature;BME280_humidity;BME280_pressure;Samples;Min_cycle;Max_cycle;Signal;HPM_P1;HPM_P2
2023/03/21 00:00:47;;;;;;;;;;;;;;;23.20;49.21;96815.06;585634;242;65054;-64
2023/03/21 00:03:15;;;;;;;;;;;;;;;23.18;47.70;96812.66;585639;241;66869;-64
2023/03/21 00:05:48;;;;;;;;;;;;;;;23.19;49.10;96814.27;585663;241;64999;-64
2023/03/21 00:08:12;;;;;;;;;;;;;;;23.18;47.01;96814.55;585465;242;63101;-64
2023/03/21 00:10:40;;;;;;;;;;;;;;;23.18;47.54;96811.87;585636;242;67474;-64
2023/03/21 00:13:07;;;;;;;;;;;;;;;23.17;49.03;96807.61;585669;242;67091;-64
2023/03/21 00:15:49;;;;;;;;;;;;;;;23.16;49.08;96804.13;585676;242;65069;-64
2023/03/21 00:18:10;;;;;;;;;;;;;;;23.16;49.00;96809.49;585169;241;65038;-64
2023/03/21 00:20:33;;;;;;;;;;;;;;;23.16;49.54;96801.45;585627;241;64965;-64
2023/03/21 00:23:03;;;;;;;;;;;;;;;23.14;46.31;96792.89;585678;242;62869;-65
2023/03/21 00:25:31;;;;;;;;;;;;;;;23.15;51.31;96788.33;585652;241;65079;-64
2023/03/21 00:27:59;;;;;;;;;;;;;;;23.13;48.90;96793.96;585642;242;67150;-64
2023/03/21 00:30:27;;;;;;;;;;;;;;;23.13;45.59;96785.92;585658;242;64724;-64
2023/03/21 00:32:54;;;;;;;;;;;;;;;23.12;48.80;96789.70;585721;241;67265;-64
2023/03/21 00:35:22;;;;;;;;;;;;;;;23.12;49.21;96784.34;585657;241;67114;-64
2023/03/21 00:37:49;;;;;;;;;;;;;;;23.13;49.14;96785.13;586939;241;62741;-64
2023/03/21 00:40:18;;;;;;;;;;;;;;;23.11;47.44;96776.58;588125;241;67348;-64
2023/03/21 00:42:45;;;;;;;;;;;;;;;23.12;49.65;96772.83;588229;240;67097;-64
2023/03/21 00:45:14;;;;;;;;;;;;;;;23.11;48.22;96771.21;588115;240;64870;-64
2023/03/21 00:47:41;;;;;;;;;;;;;;;23.10;49.83;96767.74;588169;241;64917;-64
2023/03/21 00:50:10;;;;;;;;;;;;;;;23.10;50.14;96764.27;588267;240;64663;-64
2023/03/21 00:52:38;;;;;;;;;;;;;;;23.09;46.62;96763.48;588122;241;63174;-66
2023/03/21 00:55:06;;;;;;;;;;;;;;;23.09;49.63;96758.12;588142;241;66857;-66
2023/03/21 00:57:34;;;;;;;;;;;;;;;23.08;49.00;96759.22;588134;240;65196;-66
2023/03/21 01:00:06;;;;;;;;;;;;;;;23.09;48.59;96754.64;588147;240;64945;-66
2023/03/21 01:02:32;;;;;;;;;;;;;;;23.06;48.78;96747.98;588126;241;67143;-66
2023/03/21 01:05:00;;;;;;;;;;;;;;;23.06;49.68;96747.98;588139;241;67323;-64
2023/03/21 01:07:29;;;;;;;;;;;;;;;23.06;48.63;96750.66;588051;240;62982;-64
2023/03/21 01:09:57;;;;;;;;;;;;;;;23.05;46.69;96746.37;588105;241;64859;-64
2023/03/21 01:12:26;;;;;;;;;;;;;;;23.04;49.04;96739.42;588179;241;66660;-64
2023/03/21 01:14:56;;;;;;;;;;;;;;;23.04;45.89;96744.79;588183;240;65054;-64
2023/03/21 01:17:24;;;;;;;;;;;;;;;23.05;51.00;96746.37;588123;241;64605;-64
2023/03/21 01:19:51;;;;;;;;;;;;;;;23.04;48.92;96744.79;588428;240;67302;-64
2023/03/21 01:22:20;;;;;;;;;;;;;;;23.01;47.01;96748.05;588216;240;65020;-64
2023/03/21 01:24:47;;;;;;;;;;;;;;;23.02;46.40;96744.27;588270;240;67405;-64
2023/03/21 01:27:15;;;;;;;;;;;;;;;23.00;48.80;96733.86;588198;240;66834;-64
2023/03/21 01:29:42;;;;;;;;;;;;;;;23.00;47.75;96733.86;588185;240;66095;-64
2023/03/21 01:32:10;;;;;;;;;;;;;;;23.01;47.01;96737.33;588239;240;67042;-64
2023/03/21 01:34:37;;;;;;;;;;;;;;;23.00;47.86;96739.22;588189;241;66787;-64
2023/03/21 01:37:05;;;;;;;;;;;;;;;22.99;46.11;96734.93;588324;240;64881;-65
2023/03/21 01:39:34;;;;;;;;;;;;;;;22.99;47.55;96736.81;588143;241;45668;-65
2023/03/21 01:42:02;;;;;;;;;;;;;;;22.98;46.88;96736.03;588293;241;66920;-66
2023/03/21 01:44:30;;;;;;;;;;;;;;;22.99;48.60;96742.18;588166;240;62922;-65
2023/03/21 01:46:58;;;;;;;;;;;;;;;22.98;48.97;96736.03;588140;241;67318;-65
2023/03/21 01:49:37;;;;;;;;;;;;;;;22.98;49.84;96741.39;587374;241;45340;-66
2023/03/21 01:52:08;;;;;;;;;;;;;;;22.97;48.82;96734.45;587379;241;45956;-67
2023/03/21 01:54:38;;;;;;;;;;;;;;;22.95;48.22;96739.27;588043;241;67182;-66
2023/03/21 01:57:07;;;;;;;;;;;;;;;22.96;48.60;96740.08;588147;241;66953;-65
2023/03/21 01:59:42;;;;;;;;;;;;;;;22.95;48.07;96738.47;588169;240;63856;-65
2023/03/21 02:02:16;;;;;;;;;;;;;;;22.96;48.78;96742.77;588451;240;49289;-67
2023/03/21 02:04:49;;;;;;;;;;;;;;;22.95;48.44;96746.52;587771;241;44161;-67
2023/03/21 02:07:18;;;;;;;;;;;;;;;22.93;47.49;96741.42;588160;240;42941;-66
2023/03/21 02:09:49;;;;;;;;;;;;;;;22.93;50.21;96743.31;587983;240;48478;-66
2023/03/21 02:12:19;;;;;;;;;;;;;;;22.93;49.75;96743.31;588029;240;44591;-64
2023/03/21 02:14:48;;;;;;;;;;;;;;;22.92;48.14;96747.09;588376;240;63048;-64
2023/03/21 02:17:38;;;;;;;;;;;;;;;22.91;47.24;96745.48;587934;240;49801;-65
2023/03/21 02:20:26;;;;;;;;;;;;;;;22.92;49.97;96749.77;588120;241;67687;-64
2023/03/21 02:23:08;;;;;;;;;;;;;;;22.90;48.13;96750.05;587792;240;65693;-65
2023/03/21 02:25:55;;;;;;;;;;;;;;;22.90;48.16;96754.62;588349;240;67474;-65
2023/03/21 02:28:27;;;;;;;;;;;;;;;22.87;47.36;96758.67;588381;240;66876;-65
2023/03/21 02:30:56;;;;;;;;;;;;;;;22.88;49.40;96764.81;588195;241;63773;-64
2023/03/21 02:33:41;;;;;;;;;;;;;;;22.87;48.55;96766.70;587840;241;67388;-64
2023/03/21 02:36:11;;;;;;;;;;;;;;;22.86;49.73;96756.27;588281;240;65503;-65
2023/03/21 02:38:40;;;;;;;;;;;;;;;22.86;48.19;96761.63;588282;241;65308;-65
2023/03/21 02:41:16;;;;;;;;;;;;;;;22.86;47.73;96764.30;588332;241;67389;-64
2023/03/21 02:43:45;;;;;;;;;;;;;;;22.85;48.75;96768.08;588214;241;66782;-64
2023/03/21 02:46:17;;;;;;;;;;;;;;;22.85;49.45;96778.80;588225;240;65601;-64
2023/03/21 02:48:56;;;;;;;;;;;;;;;22.83;48.59;96771.86;588188;241;65127;-64
2023/03/21 02:51:25;;;;;;;;;;;;;;;22.83;49.66;96766.50;588349;240;64410;-64
2023/03/21 02:53:54;;;;;;;;;;;;;;;22.82;49.54;96770.24;588218;241;63037;-64
2023/03/21 02:56:24;;;;;;;;;;;;;;;22.82;47.93;96772.92;588019;240;67603;-64
2023/03/21 02:58:54;;;;;;;;;;;;;;;22.81;48.99;96771.34;588389;240;45193;-64
2023/03/21 03:01:24;;;;;;;;;;;;;;;22.81;48.73;96775.91;588181;240;62524;-64
2023/03/21 03:03:52;;;;;;;;;;;;;;;22.81;50.21;96774.02;588174;241;66818;-65
2023/03/21 03:06:21;;;;;;;;;;;;;;;22.79;48.13;96764.67;588204;241;64717;-66
2023/03/21 03:09:08;;;;;;;;;;;;;;;22.80;48.91;96767.05;588084;240;63118;-66
2023/03/21 03:11:43;;;;;;;;;;;;;;;22.79;49.31;96765.46;588045;240;65511;-66
2023/03/21 03:14:12;;;;;;;;;;;;;;;22.78;47.34;96763.06;588270;240;66624;-67
2023/03/21 03:16:57;;;;;;;;;;;;;;;22.78;50.80;96761.20;587786;240;65134;-66
2023/03/21 03:19:27;;;;;;;;;;;;;;;22.76;49.93;96755.33;588201;240;66971;-66
2023/03/21 03:22:08;;;;;;;;;;;;;;;22.76;49.10;96752.65;588202;241;64430;-64
2023/03/21 03:24:40;;;;;;;;;;;;;;;22.75;49.02;96759.11;588187;240;65292;-64
2023/03/21 03:27:14;;;;;;;;;;;;;;;22.75;48.74;96756.42;587980;240;67763;-64
2023/03/21 03:29:43;;;;;;;;;;;;;;;22.74;48.22;96757.49;588167;240;67549;-64
2023/03/21 03:32:13;;;;;;;;;;;;;;;22.73;48.46;96761.27;588170;241;65029;-64
2023/03/21 03:34:43;;;;;;;;;;;;;;;22.73;47.48;96765.83;587754;240;64238;-64
2023/03/21 03:37:12;;;;;;;;;;;;;;;22.73;48.75;96761.27;588158;240;65575;-64
2023/03/21 03:39:41;;;;;;;;;;;;;;;22.74;50.53;96754.02;588194;240;64870;-64
2023/03/21 03:42:13;;;;;;;;;;;;;;;22.72;50.53;96751.62;588089;240;71681;-64
2023/03/21 03:44:41;;;;;;;;;;;;;;;22.72;48.39;96759.66;587854;241;64461;-64
2023/03/21 03:47:10;;;;;;;;;;;;;;;22.71;47.63;96760.75;587274;240;65716;-64
2023/03/21 03:49:39;;;;;;;;;;;;;;;22.72;48.66;96758.86;588233;241;66482;-64
2023/03/21 03:52:08;;;;;;;;;;;;;;;22.70;49.39;96759.16;588077;240;64508;-66
2023/03/21 03:54:42;;;;;;;;;;;;;;;22.71;48.89;96762.64;588087;241;43910;-66
2023/03/21 03:57:11;;;;;;;;;;;;;;;22.70;48.26;96761.84;588243;240;67775;-66
2023/03/21 03:59:40;;;;;;;;;;;;;;;22.70;49.21;96756.48;588206;240;64868;-66
2023/03/21 04:02:09;;;;;;;;;;;;;;;22.69;49.14;96760.23;587393;241;45965;-66
2023/03/21 04:04:37;;;;;;;;;;;;;;;22.70;51.12;96761.02;588203;241;66992;-66
2023/03/21 04:07:06;;;;;;;;;;;;;;;22.67;49.11;96757.06;588527;240;64238;-66
2023/03/21 04:09:35;;;;;;;;;;;;;;;22.67;49.72;96759.75;588303;240;65139;-66
2023/03/21 04:12:02;;;;;;;;;;;;;;;22.67;48.73;96766.95;588193;240;67500;-66
2023/03/21 04:14:30;;;;;;;;;;;;;;;22.67;50.44;96757.06;588365;240;64897;-66
2023/03/21 04:16:58;;;;;;;;;;;;;;;22.67;48.65;96761.60;588253;240;65032;-66
2023/03/21 04:19:26;;;;;;;;;;;;;;;22.66;49.21;96765.38;588201;240;66760;-66
2023/03/21 04:21:53;;;;;;;;;;;;;;;22.64;48.50;96762.97;588229;240;66815;-66
2023/03/21 04:24:22;;;;;;;;;;;;;;;22.64;51.07;96762.97;588082;240;47933;-66
2023/03/21 04:26:52;;;;;;;;;;;;;;;22.62;48.58;96765.16;588194;241;64380;-66
2023/03/21 04:29:28;;;;;;;;;;;;;;;22.63;49.78;96768.63;587390;241;46617;-66
2023/03/21 04:32:16;;;;;;;;;;;;;;;22.63;48.80;96768.63;581577;243;46194;-66
2023/03/21 04:34:52;;;;;;;;;;;;;;;22.61;47.99;96766.23;581596;243;43920;-67
2023/03/21 04:37:22;;;;;;;;;;;;;;;22.60;48.38;96770.80;584281;240;67179;-66
2023/03/21 04:39:50;;;;;;;;;;;;;;;22.60;48.33;96772.68;588837;240;65039;-66
2023/03/21 04:42:18;;;;;;;;;;;;;;;22.59;48.63;96777.25;588881;240;64499;-66
2023/03/21 04:44:46;;;;;;;;;;;;;;;22.59;50.12;96774.56;588637;240;67220;-66
2023/03/21 04:47:20;;;;;;;;;;;;;;;22.58;48.85;96770.28;588355;241;65079;-66
2023/03/21 04:49:44;;;;;;;;;;;;;;;22.57;47.22;96774.05;588093;241;67752;-66
2023/03/21 04:52:12;;;;;;;;;;;;;;;22.57;47.63;96774.05;588772;240;66908;-67
2023/03/21 04:54:39;;;;;;;;;;;;;;;22.57;50.34;96778.61;588862;240;65033;-67
2023/03/21 04:57:07;;;;;;;;;;;;;;;22.56;49.08;96788.53;588879;240;66737;-67
2023/03/21 04:59:35;;;;;;;;;;;;;;;22.56;50.25;96790.39;588856;240;64627;-67
2023/03/21 05:02:02;;;;;;;;;;;;;;;22.56;50.58;96787.72;588866;240;65141;-66
2023/03/21 05:04:31;;;;;;;;;;;;;;;22.55;49.92;96797.64;588780;241;66912;-67
2023/03/21 05:06:58;;;;;;;;;;;;;;;22.55;49.84;96796.84;588842;240;66831;-67
2023/03/21 05:09:26;;;;;;;;;;;;;;;22.55;48.24;96802.20;587966;240;65756;-67
2023/03/21 05:11:54;;;;;;;;;;;;;;;22.55;48.30;96802.20;588248;241;68043;-66
2023/03/21 05:14:23;;;;;;;;;;;;;;;22.54;50.63;96800.61;588828;241;64307;-66
2023/03/21 05:16:55;;;;;;;;;;;;;;;22.53;49.33;96804.36;588795;240;65050;-67
2023/03/21 05:19:24;;;;;;;;;;;;;;;22.53;49.36;96809.72;588773;241;66943;-67
2023/03/21 05:21:52;;;;;;;;;;;;;;;22.52;49.97;96802.77;588689;240;65595;-66
2023/03/21 05:24:21;;;;;;;;;;;;;;;22.51;48.29;96801.98;588930;240;45238;-66
2023/03/21 05:26:51;;;;;;;;;;;;;;;22.52;49.31;96806.24;588898;240;66832;-66
2023/03/21 05:29:20;;;;;;;;;;;;;;;22.51;47.91;96801.19;588816;241;44459;-66
2023/03/21 05:32:00;;;;;;;;;;;;;;;22.52;49.86;96800.09;584595;240;45034;-66
2023/03/21 05:34:27;;;;;;;;;;;;;;;22.52;49.29;96797.42;588835;240;64467;-66
2023/03/21 05:36:55;;;;;;;;;;;;;;;22.53;50.91;96793.64;588759;240;66343;-65
2023/03/21 05:39:24;;;;;;;;;;;;;;;22.53;48.47;96801.68;588996;240;65682;-66
2023/03/21 05:41:56;;;;;;;;;;;;;;;22.53;50.46;96804.36;588437;240;47432;-66
2023/03/21 05:44:24;;;;;;;;;;;;;;;22.54;49.98;96795.26;588858;240;66491;-67
2023/03/21 05:46:52;;;;;;;;;;;;;;;22.54;50.75;96792.58;588631;240;64984;-66
2023/03/21 05:49:21;;;;;;;;;;;;;;;22.55;50.22;96794.16;588272;241;67563;-66
2023/03/21 05:51:50;;;;;;;;;;;;;;;22.55;46.78;96799.52;588628;240;43855;-66
2023/03/21 05:54:18;;;;;;;;;;;;;;;22.57;50.03;96783.97;588852;240;62737;-66
2023/03/21 05:56:47;;;;;;;;;;;;;;;22.56;47.58;96787.72;588843;241;67313;-66
2023/03/21 05:59:16;;;;;;;;;;;;;;;22.57;48.67;96790.12;588538;241;44195;-67
2023/03/21 06:01:44;;;;;;;;;;;;;;;22.60;50.25;96799.47;588778;241;63042;-67
2023/03/21 06:04:13;;;;;;;;;;;;;;;22.59;46.24;96796.00;588834;241;67911;-67
2023/03/21 06:06:40;;;;;;;;;;;;;;;22.60;48.10;96794.90;588736;240;64626;-68
2023/03/21 06:09:08;;;;;;;;;;;;;;;22.62;49.34;96794.63;588882;240;65749;-68
2023/03/21 06:11:37;;;;;;;;;;;;;;;22.63;48.23;96796.20;588863;240;67354;-66
2023/03/21 06:14:13;;;;;;;;;;;;;;;22.65;50.58;96795.94;588537;240;45462;-66
2023/03/21 06:16:41;;;;;;;;;;;;;;;22.64;50.56;96797.80;588759;240;62622;-67
2023/03/21 06:19:08;;;;;;;;;;;;;;;22.65;49.79;96791.38;588415;241;67232;-67
2023/03/21 06:21:38;;;;;;;;;;;;;;;22.68;49.37;96798.04;588459;241;47345;-67
2023/03/21 06:24:06;;;;;;;;;;;;;;;22.68;49.60;96792.68;588828;240;65709;-67
2023/03/21 06:26:34;;;;;;;;;;;;;;;22.68;48.54;96796.16;588900;240;67298;-66
2023/03/21 06:29:03;;;;;;;;;;;;;;;22.69;47.68;96797.73;588980;240;64399;-65
2023/03/21 06:31:31;;;;;;;;;;;;;;;22.70;49.36;96796.67;588768;241;65097;-65
2023/03/21 06:34:00;;;;;;;;;;;;;;;22.71;48.07;96784.06;583721;241;44937;-65
2023/03/21 06:36:28;;;;;;;;;;;;;;;22.72;48.80;96783.77;583662;241;68629;-65
2023/03/21 06:38:55;;;;;;;;;;;;;;;22.73;49.21;96787.27;588847;241;65302;-65
2023/03/21 06:41:23;;;;;;;;;;;;;;;22.75;50.24;96790.43;588248;240;67515;-65
2023/03/21 06:43:52;;;;;;;;;;;;;;;22.75;50.15;96782.39;588174;241;45222;-65
2023/03/21 06:46:20;;;;;;;;;;;;;;;22.78;52.71;96784.49;588633;240;65070;-65
2023/03/21 06:48:48;;;;;;;;;;;;;;;22.77;49.13;96788.27;588796;241;68060;-65
2023/03/21 06:51:15;;;;;;;;;;;;;;;22.78;45.55;96779.95;588875;240;67256;-67
2023/03/21 06:53:45;;;;;;;;;;;;;;;22.79;43.83;96786.89;588489;240;42482;-64
2023/03/21 06:56:20;;;;;;;;;;;;;;;22.80;46.76;96777.77;587939;241;44602;-64
2023/03/21 06:58:48;;;;;;;;;;;;;;;22.82;47.06;96778.28;583739;239;66907;-64
2023/03/21 07:01:18;;;;;;;;;;;;;;;22.82;48.63;96780.96;580931;241;44745;-64
2023/03/21 07:03:47;;;;;;;;;;;;;;;22.85;49.73;96778.80;582898;243;44783;-65
2023/03/21 07:06:15;;;;;;;;;;;;;;;22.85;44.49;96778.80;583213;241;67643;-63
2023/03/21 07:08:43;;;;;;;;;;;;;;;22.88;48.17;96772.86;583236;243;62877;-66
2023/03/21 07:11:11;;;;;;;;;;;;;;;22.88;45.84;96767.50;583194;241;67250;-67
2023/03/21 07:13:39;;;;;;;;;;;;;;;22.88;49.78;96770.97;585228;239;68089;-66
2023/03/21 07:16:08;;;;;;;;;;;;;;;22.89;48.01;96771.77;583263;241;63053;-66
2023/03/21 07:18:36;;;;;;;;;;;;;;;22.91;42.90;96767.70;583487;241;67054;-68
2023/03/21 07:21:04;;;;;;;;;;;;;;;22.96;48.47;96764.20;583473;240;65030;-67
2023/03/21 07:23:31;;;;;;;;;;;;;;;22.99;47.80;96759.05;583336;242;65220;-67
2023/03/21 07:25:59;;;;;;;;;;;;;;;23.01;48.98;96766.81;583476;241;67113;-67
2023/03/21 07:28:27;;;;;;;;;;;;;;;23.02;48.08;96763.03;582087;241;67088;-66
2023/03/21 07:30:56;;;;;;;;;;;;;;;23.04;48.22;96755.51;573347;243;66331;-65
2023/03/21 07:33:24;;;;;;;;;;;;;;;23.06;46.28;96752.55;583726;242;66993;-65
2023/03/21 07:35:53;;;;;;;;;;;;;;;23.07;47.40;96760.28;581485;242;68403;-66
2023/03/21 07:38:21;;;;;;;;;;;;;;;23.08;47.52;96756.53;586487;240;62940;-66
2023/03/21 07:40:49;;;;;;;;;;;;;;;23.10;47.76;96753.55;587817;241;67455;-67
2023/03/21 07:43:17;;;;;;;;;;;;;;;23.12;48.16;96754.06;589713;240;65906;-68
2023/03/21 07:45:45;;;;;;;;;;;;;;;23.11;48.05;96761.31;585003;241;66559;-66
2023/03/21 07:48:16;;;;;;;;;;;;;;;23.12;48.62;96751.38;587757;241;65257;-67
2023/03/21 07:50:43;;;;;;;;;;;;;;;23.12;46.63;96749.49;589235;240;66900;-66
2023/03/21 07:53:10;;;;;;;;;;;;;;;23.13;45.24;96756.44;589726;240;65722;-67
2023/03/21 07:55:38;;;;;;;;;;;;;;;23.14;46.76;96754.58;587810;241;65068;-66
2023/03/21 07:58:05;;;;;;;;;;;;;;;23.14;47.75;96755.37;588642;240;64764;-66
2023/03/21 08:00:33;;;;;;;;;;;;;;;23.15;46.32;96746.23;589822;240;62860;-67
2023/03/21 08:03:01;;;;;;;;;;;;;;;23.16;46.37;96747.02;589868;240;64941;-65
2023/03/21 08:05:30;;;;;;;;;;;;;;;23.16;46.84;96750.52;589806;240;64952;-66
2023/03/21 08:07:57;;;;;;;;;;;;;;;23.17;49.01;96743.27;589675;240;62908;-67
2023/03/21 08:10:25;;;;;;;;;;;;;;;23.18;47.32;96750.21;589852;240;67338;-68
2023/03/21 08:12:53;;;;;;;;;;;;;;;23.17;47.16;96746.73;589829;240;65659;-67
2023/03/21 08:15:22;;;;;;;;;;;;;;;23.17;45.28;96749.42;587033;238;46219;-67
2023/03/21 08:17:50;;;;;;;;;;;;;;;23.19;47.44;96741.89;587867;240;67279;-68
2023/03/21 08:20:21;;;;;;;;;;;;;;;23.19;45.29;96741.89;587331;241;66896;-66
2023/03/21 08:22:50;;;;;;;;;;;;;;;23.21;45.91;96744.27;581108;241;42167;-65
2023/03/21 08:25:20;;;;;;;;;;;;;;;23.22;45.33;96752.03;587374;241;64992;-66
2023/03/21 08:27:48;;;;;;;;;;;;;;;23.23;46.46;96752.82;586881;241;65406;-67
2023/03/21 08:30:22;;;;;;;;;;;;;;;23.24;47.87;96741.81;586309;240;65242;-68
2023/03/21 08:32:46;;;;;;;;;;;;;;;23.26;44.65;96747.66;591345;238;65109;-68
2023/03/21 08:35:15;;;;;;;;;;;;;;;23.29;46.71;96748.17;592665;239;64892;-68
2023/03/21 08:37:43;;;;;;;;;;;;;;;23.30;44.85;96747.08;590437;239;64919;-68
2023/03/21 08:40:12;;;;;;;;;;;;;;;23.29;42.32;96740.92;588676;239;64970;-69
2023/03/21 08:42:40;;;;;;;;;;;;;;;23.28;46.48;96747.38;588817;241;64974;-68
2023/03/21 08:45:08;;;;;;;;;;;;;;;23.29;40.24;96740.13;589019;241;62939;-69
2023/03/21 08:47:36;;;;;;;;;;;;;;;23.31;44.55;96740.64;588880;239;66967;-67
2023/03/21 08:50:05;;;;;;;;;;;;;;;23.31;44.13;96743.32;588827;241;66890;-68
2023/03/21 08:52:33;;;;;;;;;;;;;;;23.33;43.51;96747.30;588987;239;63119;-68
2023/03/21 08:55:01;;;;;;;;;;;;;;;23.36;43.41;96732.52;589072;239;65195;-67
2023/03/21 08:57:28;;;;;;;;;;;;;;;23.37;45.56;96737.57;588851;241;67220;-66
2023/03/21 08:59:56;;;;;;;;;;;;;;;23.38;41.32;96738.36;588925;239;65068;-67
2023/03/21 09:02:24;;;;;;;;;;;;;;;23.40;43.73;96733.52;588831;237;67276;-67
2023/03/21 09:04:57;;;;;;;;;;;;;;;23.39;43.29;96727.36;588969;241;64890;-69
2023/03/21 09:07:25;;;;;;;;;;;;;;;23.39;40.44;96734.61;588757;241;62968;-68
2023/03/21 09:09:52;;;;;;;;;;;;;;;23.45;40.20;96733.43;588718;239;65285;-68
2023/03/21 09:12:19;;;;;;;;;;;;;;;23.47;39.96;96726.69;587901;239;67106;-67
2023/03/21 09:14:47;;;;;;;;;;;;;;;23.51;39.89;96732.25;588918;239;64982;-68
2023/03/21 09:17:14;;;;;;;;;;;;;;;23.54;40.77;96737.02;588915;241;65038;-67
2023/03/21 09:19:42;;;;;;;;;;;;;;;23.56;41.21;96736.74;588995;241;64952;-68
2023/03/21 09:22:16;;;;;;;;;;;;;;;23.58;41.24;96734.57;588764;240;65108;-67
2023/03/21 09:24:40;;;;;;;;;;;;;;;23.63;40.82;96734.48;587619;241;67265;-70
2023/03/21 09:27:08;;;;;;;;;;;;;;;23.62;41.01;96725.62;587826;241;65017;-66
2023/03/21 09:29:36;;;;;;;;;;;;;;;23.61;43.67;96726.72;588139;241;65157;-68
2023/03/21 09:32:05;;;;;;;;;;;;;;;23.62;40.41;96727.52;587986;241;67262;-67
2023/03/21 09:34:33;;;;;;;;;;;;;;;23.66;40.49;96729.32;588118;241;66713;-68
2023/03/21 09:37:01;;;;;;;;;;;;;;;23.69;40.61;96727.94;587887;240;63233;-67
2023/03/21 09:39:29;;;;;;;;;;;;;;;23.71;41.17;96728.47;585597;241;66958;-70
2023/03/21 09:42:04;;;;;;;;;;;;;;;23.73;42.72;96720.11;585984;241;67199;-69
2023/03/21 09:44:33;;;;;;;;;;;;;;;23.73;40.93;96712.86;586774;241;63046;-68
2023/03/21 09:47:02;;;;;;;;;;;;;;;23.76;40.31;96716.84;586567;242;66969;-69
2023/03/21 09:49:37;;;;;;;;;;;;;;;23.77;39.95;96710.39;586731;241;66799;-68
2023/03/21 09:52:06;;;;;;;;;;;;;;;23.80;41.77;96712.48;586654;242;62788;-68
2023/03/21 09:54:39;;;;;;;;;;;;;;;23.80;39.85;96713.27;586436;242;66899;-67
2023/03/21 09:57:24;;;;;;;;;;;;;;;23.79;40.11;96717.06;586656;241;67089;-68
2023/03/21 09:59:53;;;;;;;;;;;;;;;23.81;41.39;96714.06;587060;241;65107;-71
2023/03/21 10:02:30;;;;;;;;;;;;;;;23.82;39.74;96710.30;587069;241;66844;-71
2023/03/21 10:04:51;;;;;;;;;;;;;;;23.85;39.17;96707.03;582674;241;66892;-67
2023/03/21 10:07:19;;;;;;;;;;;;;;;23.86;39.04;96703.23;580972;244;62368;-67
2023/03/21 10:09:48;;;;;;;;;;;;;;;23.88;38.40;96711.80;581113;244;66087;-70
2023/03/21 10:12:23;;;;;;;;;;;;;;;23.89;37.98;96711.48;581087;244;66975;-68
2023/03/21 10:14:52;;;;;;;;;;;;;;;23.92;38.60;96712.78;580883;244;62856;-68
2023/03/21 10:17:32;;;;;;;;;;;;;;;23.94;40.30;96707.92;581404;244;67093;-68
2023/03/21 10:20:09;;;;;;;;;;;;;;;23.94;38.18;96707.92;581284;244;67029;-68
2023/03/21 10:22:32;;;;;;;;;;;;;;;23.95;38.66;96701.45;581559;240;65084;-70
2023/03/21 10:24:59;;;;;;;;;;;;;;;23.97;39.68;96691.22;581811;243;67143;-68
2023/03/21 10:27:27;;;;;;;;;;;;;;;23.97;39.47;96685.06;581276;243;67038;-70
2023/03/21 10:29:56;;;;;;;;;;;;;;;23.98;37.98;96690.14;582111;242;64905;-69
2023/03/21 10:32:23;;;;;;;;;;;;;;;23.99;38.56;96683.67;581473;243;64876;-67
2023/03/21 10:34:54;;;;;;;;;;;;;;;24.00;38.86;96689.83;582513;243;64992;-67
2023/03/21 10:37:22;;;;;;;;;;;;;;;23.99;37.85;96682.88;584949;240;65071;-68
2023/03/21 10:39:51;;;;;;;;;;;;;;;24.00;40.25;96687.14;590938;240;63864;-69
2023/03/21 10:42:22;;;;;;;;;;;;;;;23.99;39.81;96685.56;591190;240;65091;-68
2023/03/21 10:44:51;;;;;;;;;;;;;;;24.00;39.62;96690.62;591398;240;65178;-68
2023/03/21 10:47:22;;;;;;;;;;;;;;;24.00;38.82;96682.56;591170;240;67304;-68
2023/03/21 10:49:50;;;;;;;;;;;;;;;24.00;41.07;96682.56;591371;240;66869;-68
2023/03/21 10:52:21;;;;;;;;;;;;;;;24.00;40.17;96682.56;591464;240;65062;-69
2023/03/21 10:54:49;;;;;;;;;;;;;;;24.00;45.00;96677.20;591399;240;65024;-69
2023/03/21 10:57:20;;;;;;;;;;;;;;;23.99;40.06;96666.78;591442;240;67373;-69
2023/03/21 10:59:57;;;;;;;;;;;;;;;24.00;39.79;96663.78;591437;239;62878;-64
2023/03/21 11:02:26;;;;;;;;;;;;;;;24.00;41.79;96663.78;591428;240;64852;-65
2023/03/21 11:04:57;;;;;;;;;;;;;;;24.01;38.78;96661.88;593570;236;67025;-64
2023/03/21 11:07:29;;;;;;;;;;;;;;;24.01;39.04;96665.39;596295;237;65194;-64
2023/03/21 11:09:56;;;;;;;;;;;;;;;24.02;38.46;96666.97;598451;236;65000;-63
2023/03/21 11:12:32;;;;;;;;;;;;;;;24.03;41.44;96667.75;598573;237;66914;-63
2023/03/21 11:15:01;;;;;;;;;;;;;;;24.02;40.84;96664.28;598539;237;65231;-64
2023/03/21 11:17:31;;;;;;;;;;;;;;;24.02;40.41;96656.23;598060;236;67008;-66
2023/03/21 11:20:00;;;;;;;;;;;;;;;24.02;40.24;96648.17;598402;237;67061;-62
2023/03/21 11:22:31;;;;;;;;;;;;;;;24.02;40.39;96647.38;598436;237;65281;-63
2023/03/21 11:25:00;;;;;;;;;;;;;;;24.01;38.54;96648.46;598354;236;65269;-64
2023/03/21 11:27:29;;;;;;;;;;;;;;;24.04;38.19;96640.63;598600;237;67075;-64
2023/03/21 11:29:58;;;;;;;;;;;;;;;24.07;39.80;96637.34;598358;237;63084;-64
2023/03/21 11:32:33;;;;;;;;;;;;;;;24.09;41.00;96631.66;598364;237;67304;-64
2023/03/21 11:35:02;;;;;;;;;;;;;;;24.10;39.74;96630.58;593622;237;67223;-65
2023/03/21 11:37:40;;;;;;;;;;;;;;;24.10;41.59;96628.68;597886;236;65130;-64
2023/03/21 11:40:28;;;;;;;;;;;;;;;24.10;39.24;96625.20;597746;237;64983;-65
2023/03/21 11:42:56;;;;;;;;;;;;;;;24.10;40.44;96615.26;597776;237;66890;-64
2023/03/21 11:45:25;;;;;;;;;;;;;;;24.10;41.15;96607.20;597874;237;62591;-64
2023/03/21 11:47:54;;;;;;;;;;;;;;;24.10;40.21;96617.95;597761;237;65084;-63
2023/03/21 11:50:23;;;;;;;;;;;;;;;24.12;44.40;96612.29;597913;237;67097;-63
2023/03/21 11:52:52;;;;;;;;;;;;;;;24.12;41.32;96607.70;597871;236;64908;-63
2023/03/21 11:55:21;;;;;;;;;;;;;;;24.15;42.30;96607.10;597083;237;67199;-63
2023/03/21 11:57:51;;;;;;;;;;;;;;;24.15;40.95;96603.63;597933;236;64703;-64
2023/03/21 12:00:24;;;;;;;;;;;;;;;24.17;42.96;96595.25;597623;237;65227;-64
2023/03/21 12:03:05;;;;;;;;;;;;;;;24.17;43.47;96592.57;597937;236;65084;-65
2023/03/21 12:05:34;;;;;;;;;;;;;;;24.17;41.57;96587.98;597691;237;64722;-64
2023/03/21 12:08:09;;;;;;;;;;;;;;;24.17;39.86;96582.62;597901;237;64988;-64
2023/03/21 12:10:41;;;;;;;;;;;;;;;24.19;39.94;96585.02;597704;237;67163;-65
2023/03/21 12:13:16;;;;;;;;;;;;;;;24.21;39.49;96582.83;597915;237;65240;-65
2023/03/21 12:16:05;;;;;;;;;;;;;;;24.21;43.83;96572.09;597190;237;64950;-64
2023/03/21 12:18:50;;;;;;;;;;;;;;;24.23;42.09;96576.06;585886;240;67248;-63
2023/03/21 12:21:22;;;;;;;;;;;;;;;24.26;43.87;96574.67;585787;240;66946;-64
2023/03/21 12:24:00;;;;;;;;;;;;;;;24.25;40.52;96578.43;591678;237;65387;-63
2023/03/21 12:26:46;;;;;;;;;;;;;;;24.27;40.71;96576.25;597789;237;47657;-63
2023/03/21 12:29:21;;;;;;;;;;;;;;;24.27;40.68;96570.87;597568;236;67050;-65
2023/03/21 12:31:50;;;;;;;;;;;;;;;24.28;41.21;96567.08;597924;237;62739;-63
2023/03/21 12:34:19;;;;;;;;;;;;;;;24.29;40.14;96563.32;590340;237;64878;-64
2023/03/21 12:37:04;;;;;;;;;;;;;;;24.29;44.57;96557.95;597787;237;66937;-63
2023/03/21 12:39:33;;;;;;;;;;;;;;;24.29;39.90;96557.95;597122;237;65524;-63
2023/03/21 12:42:18;;;;;;;;;;;;;;;24.31;41.62;96551.18;597979;236;65358;-63
2023/03/21 12:44:47;;;;;;;;;;;;;;;24.34;39.89;96549.78;597838;236;65164;-64
2023/03/21 12:47:19;;;;;;;;;;;;;;;24.34;39.33;96553.25;597938;236;62977;-64
2023/03/21 12:49:48;;;;;;;;;;;;;;;24.35;39.00;96554.05;598036;237;65035;-63
2023/03/21 12:52:34;;;;;;;;;;;;;;;24.39;39.40;96555.04;597728;237;64567;-63
2023/03/21 12:55:03;;;;;;;;;;;;;;;24.42;38.82;96559.80;597779;237;65490;-64
2023/03/21 12:57:33;;;;;;;;;;;;;;;24.44;41.22;96560.30;597730;237;45654;-67
2023/03/21 13:00:11;;;;;;;;;;;;;;;24.45;39.34;96561.91;597795;237;67092;-64
2023/03/21 13:02:43;;;;;;;;;;;;;;;24.45;40.59;96553.84;597872;237;65043;-63